Terminal Aerodrome Forecast
Issued by NWS Nashville, TN

Current Version | Previous Version | Text Only | Print | Product List | Glossary Off
Versions: 1 2 3 4 5 6 7 8 9 10 11 12 13 14 15

000
FTUS44 KOHX 211100
TAFBNA
TAF
KBNA 211120Z 2112/2212 03003KT P6SM OVC050
     FM211500 08007KT P6SM OVC050
     FM220000 13005KT P6SM BKN080=

USA.gov is the U.S. government's official web portal to all federal, state and local government web resources and services.